sensor_id;sensor_type;location;lat;lon;timestamp;P1;durP1;ratioP1;P2;durP2;ratioP2
47669;SDS011;33408;52.062;11.722;2022-08-30T00:00:54;3.50;;;1.00;;
47669;SDS011;33408;52.062;11.722;2022-08-30T00:03:29;1.90;;;0.88;;
47669;SDS011;33408;52.062;11.722;2022-08-30T00:05:58;1.63;;;1.00;;
47669;SDS011;33408;52.062;11.722;2022-08-30T00:08:25;2.00;;;0.90;;
47669;SDS011;33408;52.062;11.722;2022-08-30T00:10:52;1.30;;;0.80;;
47669;SDS011;33408;52.062;11.722;2022-08-30T00:13:20;3.58;;;0.98;;
47669;SDS011;33408;52.062;11.722;2022-08-30T00:15:48;2.83;;;1.15;;
47669;SDS011;33408;52.062;11.722;2022-08-30T00:18:15;2.15;;;0.80;;
47669;SDS011;33408;52.062;11.722;2022-08-30T00:20:43;2.67;;;1.05;;
47669;SDS011;33408;52.062;11.722;2022-08-30T00:23:10;1.58;;;0.93;;
47669;SDS011;33408;52.062;11.722;2022-08-30T00:25:37;4.28;;;1.00;;
47669;SDS011;33408;52.062;11.722;2022-08-30T00:28:04;3.35;;;1.10;;
47669;SDS011;33408;52.062;11.722;2022-08-30T00:30:32;2.13;;;1.10;;
47669;SDS011;33408;52.062;11.722;2022-08-30T00:32:59;3.60;;;1.08;;
47669;SDS011;33408;52.062;11.722;2022-08-30T00:35:25;3.78;;;1.45;;
47669;SDS011;33408;52.062;11.722;2022-08-30T00:37:52;2.60;;;1.27;;
47669;SDS011;33408;52.062;11.722;2022-08-30T00:40:20;2.65;;;1.23;;
47669;SDS011;33408;52.062;11.722;2022-08-30T00:42:47;2.65;;;1.25;;
47669;SDS011;33408;52.062;11.722;2022-08-30T00:45:15;2.25;;;1.17;;
47669;SDS011;33408;52.062;11.722;2022-08-30T00:47:46;1.83;;;1.20;;
47669;SDS011;33408;52.062;11.722;2022-08-30T00:50:14;3.70;;;1.38;;
47669;SDS011;33408;52.062;11.722;2022-08-30T00:52:44;3.78;;;1.20;;
47669;SDS011;33408;52.062;11.722;2022-08-30T00:55:13;3.13;;;1.50;;
47669;SDS011;33408;52.062;11.722;2022-08-30T00:57:42;1.38;;;1.10;;
47669;SDS011;33408;52.062;11.722;2022-08-30T01:00:10;3.63;;;1.15;;
47669;SDS011;33408;52.062;11.722;2022-08-30T01:02:38;3.22;;;1.30;;
47669;SDS011;33408;52.062;11.722;2022-08-30T01:05:07;2.92;;;1.35;;
47669;SDS011;33408;52.062;11.722;2022-08-30T01:07:35;3.10;;;1.63;;
47669;SDS011;33408;52.062;11.722;2022-08-30T01:10:03;2.88;;;1.20;;
47669;SDS011;33408;52.062;11.722;2022-08-30T01:12:32;3.53;;;1.38;;
47669;SDS011;33408;52.062;11.722;2022-08-30T01:15:02;3.05;;;1.30;;
47669;SDS011;33408;52.062;11.722;2022-08-30T01:17:30;3.47;;;1.23;;
47669;SDS011;33408;52.062;11.722;2022-08-30T01:19:59;3.30;;;1.60;;
47669;SDS011;33408;52.062;11.722;2022-08-30T01:22:31;2.97;;;1.35;;
47669;SDS011;33408;52.062;11.722;2022-08-30T01:25:04;2.10;;;1.30;;
47669;SDS011;33408;52.062;11.722;2022-08-30T01:27:33;3.60;;;1.52;;
47669;SDS011;33408;52.062;11.722;2022-08-30T01:30:03;5.95;;;2.10;;
47669;SDS011;33408;52.062;11.722;2022-08-30T01:32:31;3.10;;;1.60;;
47669;SDS011;33408;52.062;11.722;2022-08-30T01:35:04;4.03;;;1.60;;
47669;SDS011;33408;52.062;11.722;2022-08-30T01:37:32;4.75;;;1.60;;
47669;SDS011;33408;52.062;11.722;2022-08-30T01:40:00;2.58;;;1.55;;
47669;SDS011;33408;52.062;11.722;2022-08-30T01:42:28;4.63;;;1.95;;
47669;SDS011;33408;52.062;11.722;2022-08-30T01:44:55;2.97;;;1.40;;
47669;SDS011;33408;52.062;11.722;2022-08-30T01:47:21;3.28;;;1.48;;
47669;SDS011;33408;52.062;11.722;2022-08-30T01:49:48;5.00;;;1.80;;
47669;SDS011;33408;52.062;11.722;2022-08-30T01:52:15;3.58;;;1.73;;
47669;SDS011;33408;52.062;11.722;2022-08-30T01:54:43;3.70;;;1.90;;
47669;SDS011;33408;52.062;11.722;2022-08-30T01:57:11;3.58;;;1.75;;
47669;SDS011;33408;52.062;11.722;2022-08-30T01:59:42;2.88;;;1.77;;
47669;SDS011;33408;52.062;11.722;2022-08-30T02:02:12;3.03;;;1.73;;
47669;SDS011;33408;52.062;11.722;2022-08-30T02:04:39;3.90;;;1.80;;
47669;SDS011;33408;52.062;11.722;2022-08-30T02:07:06;3.33;;;1.83;;
47669;SDS011;33408;52.062;11.722;2022-08-30T02:09:33;6.63;;;2.10;;
47669;SDS011;33408;52.062;11.722;2022-08-30T02:12:01;3.90;;;1.80;;
47669;SDS011;33408;52.062;11.722;2022-08-30T02:14:29;5.40;;;1.80;;
47669;SDS011;33408;52.062;11.722;2022-08-30T02:16:57;4.28;;;1.88;;
47669;SDS011;33408;52.062;11.722;2022-08-30T02:19:23;3.58;;;1.50;;
47669;SDS011;33408;52.062;11.722;2022-08-30T02:21:50;3.72;;;2.00;;
47669;SDS011;33408;52.062;11.722;2022-08-30T02:24:16;5.15;;;2.20;;
47669;SDS011;33408;52.062;11.722;2022-08-30T02:26:43;3.92;;;2.30;;
47669;SDS011;33408;52.062;11.722;2022-08-30T02:29:10;4.70;;;2.13;;
47669;SDS011;33408;52.062;11.722;2022-08-30T02:31:36;5.15;;;2.60;;
47669;SDS011;33408;52.062;11.722;2022-08-30T02:34:04;4.53;;;2.53;;
47669;SDS011;33408;52.062;11.722;2022-08-30T02:36:31;6.38;;;2.65;;
47669;SDS011;33408;52.062;11.722;2022-08-30T02:38:58;6.03;;;2.63;;
47669;SDS011;33408;52.062;11.722;2022-08-30T02:41:25;4.30;;;2.33;;
47669;SDS011;33408;52.062;11.722;2022-08-30T02:43:51;5.00;;;2.60;;
47669;SDS011;33408;52.062;11.722;2022-08-30T02:46:22;3.70;;;2.22;;
47669;SDS011;33408;52.062;11.722;2022-08-30T02:48:52;5.50;;;2.50;;
47669;SDS011;33408;52.062;11.722;2022-08-30T02:51:20;3.95;;;2.30;;
47669;SDS011;33408;52.062;11.722;2022-08-30T02:53:46;4.10;;;2.58;;
47669;SDS011;33408;52.062;11.722;2022-08-30T02:56:14;4.22;;;2.60;;
47669;SDS011;33408;52.062;11.722;2022-08-30T02:58:41;4.50;;;2.63;;
47669;SDS011;33408;52.062;11.722;2022-08-30T03:01:09;5.90;;;3.40;;
47669;SDS011;33408;52.062;11.722;2022-08-30T03:03:38;6.57;;;3.08;;
47669;SDS011;33408;52.062;11.722;2022-08-30T03:06:05;4.65;;;2.85;;
47669;SDS011;33408;52.062;11.722;2022-08-30T03:08:35;5.35;;;3.10;;
47669;SDS011;33408;52.062;11.722;2022-08-30T03:11:03;5.55;;;3.03;;
47669;SDS011;33408;52.062;11.722;2022-08-30T03:13:30;6.90;;;3.20;;
47669;SDS011;33408;52.062;11.722;2022-08-30T03:15:57;5.90;;;3.35;;
47669;SDS011;33408;52.062;11.722;2022-08-30T03:18:24;6.07;;;3.67;;
47669;SDS011;33408;52.062;11.722;2022-08-30T03:20:50;5.68;;;3.72;;
47669;SDS011;33408;52.062;11.722;2022-08-30T03:23:17;6.50;;;3.90;;
47669;SDS011;33408;52.062;11.722;2022-08-30T03:25:45;6.28;;;3.92;;
47669;SDS011;33408;52.062;11.722;2022-08-30T03:28:12;7.95;;;4.20;;
47669;SDS011;33408;52.062;11.722;2022-08-30T03:30:39;8.80;;;4.80;;
47669;SDS011;33408;52.062;11.722;2022-08-30T03:33:05;8.75;;;5.22;;
47669;SDS011;33408;52.062;11.722;2022-08-30T03:35:32;7.53;;;4.80;;
47669;SDS011;33408;52.062;11.722;2022-08-30T03:37:58;8.07;;;5.97;;
47669;SDS011;33408;52.062;11.722;2022-08-30T03:40:25;6.95;;;5.32;;
47669;SDS011;33408;52.062;11.722;2022-08-30T03:42:53;7.70;;;5.60;;
47669;SDS011;33408;52.062;11.722;2022-08-30T03:45:20;8.75;;;6.30;;
47669;SDS011;33408;52.062;11.722;2022-08-30T03:47:46;7.90;;;6.07;;
47669;SDS011;33408;52.062;11.722;2022-08-30T03:50:13;8.48;;;6.13;;
47669;SDS011;33408;52.062;11.722;2022-08-30T03:52:40;8.07;;;6.07;;
47669;SDS011;33408;52.062;11.722;2022-08-30T03:55:09;8.55;;;6.70;;
47669;SDS011;33408;52.062;11.722;2022-08-30T03:57:36;9.90;;;6.68;;
47669;SDS011;33408;52.062;11.722;2022-08-30T04:00:07;9.38;;;6.93;;
47669;SDS011;33408;52.062;11.722;2022-08-30T04:02:35;9.20;;;7.05;;
47669;SDS011;33408;52.062;11.722;2022-08-30T04:05:01;8.60;;;6.35;;
47669;SDS011;33408;52.062;11.722;2022-08-30T04:07:28;8.85;;;7.20;;
47669;SDS011;33408;52.062;11.722;2022-08-30T04:09:55;9.27;;;6.93;;
47669;SDS011;33408;52.062;11.722;2022-08-30T04:12:22;10.02;;;7.13;;
47669;SDS011;33408;52.062;11.722;2022-08-30T04:14:48;12.45;;;8.30;;
47669;SDS011;33408;52.062;11.722;2022-08-30T04:17:16;10.50;;;8.70;;
47669;SDS011;33408;52.062;11.722;2022-08-30T04:19:43;11.02;;;8.85;;
47669;SDS011;33408;52.062;11.722;2022-08-30T04:22:09;12.05;;;9.02;;
47669;SDS011;33408;52.062;11.722;2022-08-30T04:24:36;12.80;;;8.95;;
47669;SDS011;33408;52.062;11.722;2022-08-30T04:27:05;10.90;;;8.93;;
47669;SDS011;33408;52.062;11.722;2022-08-30T04:29:32;11.07;;;8.98;;
47669;SDS011;33408;52.062;11.722;2022-08-30T04:31:59;10.48;;;7.90;;
47669;SDS011;33408;52.062;11.722;2022-08-30T04:34:27;13.05;;;9.48;;
47669;SDS011;33408;52.062;11.722;2022-08-30T04:36:54;11.55;;;9.07;;
47669;SDS011;33408;52.062;11.722;2022-08-30T04:39:20;11.20;;;8.57;;
47669;SDS011;33408;52.062;11.722;2022-08-30T04:41:47;10.50;;;8.82;;
47669;SDS011;33408;52.062;11.722;2022-08-30T04:44:14;12.43;;;8.85;;
47669;SDS011;33408;52.062;11.722;2022-08-30T04:46:40;11.75;;;9.57;;
47669;SDS011;33408;52.062;11.722;2022-08-30T04:49:07;12.93;;;10.32;;
47669;SDS011;33408;52.062;11.722;2022-08-30T04:51:35;12.50;;;10.18;;
47669;SDS011;33408;52.062;11.722;2022-08-30T04:54:01;13.30;;;11.90;;
47669;SDS011;33408;52.062;11.722;2022-08-30T04:56:28;18.92;;;10.68;;
47669;SDS011;33408;52.062;11.722;2022-08-30T04:58:55;15.90;;;11.25;;
47669;SDS011;33408;52.062;11.722;2022-08-30T05:01:23;16.48;;;11.68;;
47669;SDS011;33408;52.062;11.722;2022-08-30T05:03:53;12.30;;;10.38;;
47669;SDS011;33408;52.062;11.722;2022-08-30T05:06:21;14.10;;;10.65;;
47669;SDS011;33408;52.062;11.722;2022-08-30T05:08:50;12.70;;;9.80;;
47669;SDS011;33408;52.062;11.722;2022-08-30T05:11:18;12.95;;;9.45;;
47669;SDS011;33408;52.062;11.722;2022-08-30T05:13:45;14.00;;;9.20;;
47669;SDS011;33408;52.062;11.722;2022-08-30T05:16:12;14.23;;;10.25;;
47669;SDS011;33408;52.062;11.722;2022-08-30T05:18:42;11.60;;;8.95;;
47669;SDS011;33408;52.062;11.722;2022-08-30T05:21:10;13.60;;;10.02;;
47669;SDS011;33408;52.062;11.722;2022-08-30T05:23:38;13.10;;;10.48;;
47669;SDS011;33408;52.062;11.722;2022-08-30T05:26:08;13.63;;;10.05;;
47669;SDS011;33408;52.062;11.722;2022-08-30T05:28:36;14.25;;;10.00;;
47669;SDS011;33408;52.062;11.722;2022-08-30T05:31:09;15.25;;;11.48;;
47669;SDS011;33408;52.062;11.722;2022-08-30T05:33:38;15.48;;;12.20;;
47669;SDS011;33408;52.062;11.722;2022-08-30T05:36:05;17.77;;;12.35;;
47669;SDS011;33408;52.062;11.722;2022-08-30T05:38:32;14.15;;;11.80;;
47669;SDS011;33408;52.062;11.722;2022-08-30T05:40:58;13.27;;;11.82;;
47669;SDS011;33408;52.062;11.722;2022-08-30T05:43:26;13.90;;;11.23;;
47669;SDS011;33408;52.062;11.722;2022-08-30T05:45:56;15.00;;;11.00;;
47669;SDS011;33408;52.062;11.722;2022-08-30T05:48:24;12.82;;;10.65;;
47669;SDS011;33408;52.062;11.722;2022-08-30T05:50:54;11.55;;;9.82;;
47669;SDS011;33408;52.062;11.722;2022-08-30T05:53:26;10.55;;;8.43;;
47669;SDS011;33408;52.062;11.722;2022-08-30T05:55:53;10.93;;;8.95;;
47669;SDS011;33408;52.062;11.722;2022-08-30T05:58:20;10.80;;;8.90;;
47669;SDS011;33408;52.062;11.722;2022-08-30T06:00:48;9.85;;;8.65;;
47669;SDS011;33408;52.062;11.722;2022-08-30T06:03:14;10.00;;;8.68;;
47669;SDS011;33408;52.062;11.722;2022-08-30T06:05:41;11.35;;;8.18;;
47669;SDS011;33408;52.062;11.722;2022-08-30T06:08:07;10.90;;;7.97;;
47669;SDS011;33408;52.062;11.722;2022-08-30T06:10:34;11.40;;;7.55;;
47669;SDS011;33408;52.062;11.722;2022-08-30T06:13:00;11.27;;;8.70;;
47669;SDS011;33408;52.062;11.722;2022-08-30T06:15:27;11.27;;;8.38;;
47669;SDS011;33408;52.062;11.722;2022-08-30T06:17:55;10.18;;;8.07;;
47669;SDS011;33408;52.062;11.722;2022-08-30T06:20:21;10.73;;;8.38;;
47669;SDS011;33408;52.062;11.722;2022-08-30T06:22:49;9.00;;;7.40;;
47669;SDS011;33408;52.062;11.722;2022-08-30T06:25:15;9.57;;;7.40;;
47669;SDS011;33408;52.062;11.722;2022-08-30T06:27:42;10.65;;;7.47;;
47669;SDS011;33408;52.062;11.722;2022-08-30T06:30:09;9.48;;;6.75;;
47669;SDS011;33408;52.062;11.722;2022-08-30T06:32:36;9.82;;;7.30;;
47669;SDS011;33408;52.062;11.722;2022-08-30T06:35:05;8.10;;;6.43;;
47669;SDS011;33408;52.062;11.722;2022-08-30T06:37:33;10.93;;;6.97;;
47669;SDS011;33408;52.062;11.722;2022-08-30T06:40:02;8.32;;;6.28;;
47669;SDS011;33408;52.062;11.722;2022-08-30T06:42:30;9.65;;;6.68;;
47669;SDS011;33408;52.062;11.722;2022-08-30T06:44:58;9.20;;;5.38;;
47669;SDS011;33408;52.062;11.722;2022-08-30T06:47:26;7.90;;;6.20;;
47669;SDS011;33408;52.062;11.722;2022-08-30T06:49:52;8.18;;;5.68;;
47669;SDS011;33408;52.062;11.722;2022-08-30T06:52:21;14.00;;;5.20;;
47669;SDS011;33408;52.062;11.722;2022-08-30T06:54:47;8.00;;;5.13;;
47669;SDS011;33408;52.062;11.722;2022-08-30T06:57:14;7.75;;;5.50;;
47669;SDS011;33408;52.062;11.722;2022-08-30T06:59:41;10.02;;;6.03;;
47669;SDS011;33408;52.062;11.722;2022-08-30T07:02:08;9.07;;;6.00;;
47669;SDS011;33408;52.062;11.722;2022-08-30T07:04:34;10.20;;;5.63;;
47669;SDS011;33408;52.062;11.722;2022-08-30T07:07:02;8.32;;;5.38;;
47669;SDS011;33408;52.062;11.722;2022-08-30T07:09:30;9.70;;;5.85;;
47669;SDS011;33408;52.062;11.722;2022-08-30T07:12:00;7.30;;;5.05;;
47669;SDS011;33408;52.062;11.722;2022-08-30T07:14:27;9.18;;;5.35;;
47669;SDS011;33408;52.062;11.722;2022-08-30T07:16:54;9.05;;;4.68;;
47669;SDS011;33408;52.062;11.722;2022-08-30T07:19:21;10.00;;;5.18;;
47669;SDS011;33408;52.062;11.722;2022-08-30T07:21:47;10.55;;;4.82;;
47669;SDS011;33408;52.062;11.722;2022-08-30T07:24:14;8.40;;;4.65;;
47669;SDS011;33408;52.062;11.722;2022-08-30T07:26:43;6.13;;;4.00;;
47669;SDS011;33408;52.062;11.722;2022-08-30T07:29:13;7.30;;;4.50;;
47669;SDS011;33408;52.062;11.722;2022-08-30T07:31:40;8.38;;;4.30;;
47669;SDS011;33408;52.062;11.722;2022-08-30T07:34:07;7.18;;;4.07;;
47669;SDS011;33408;52.062;11.722;2022-08-30T07:36:35;7.07;;;3.65;;
47669;SDS011;33408;52.062;11.722;2022-08-30T07:39:03;6.28;;;3.50;;
47669;SDS011;33408;52.062;11.722;2022-08-30T07:41:31;10.60;;;3.53;;
47669;SDS011;33408;52.062;11.722;2022-08-30T07:44:01;7.72;;;3.72;;
47669;SDS011;33408;52.062;11.722;2022-08-30T07:46:28;6.28;;;3.78;;
47669;SDS011;33408;52.062;11.722;2022-08-30T07:48:55;5.15;;;2.55;;
47669;SDS011;33408;52.062;11.722;2022-08-30T07:51:24;6.30;;;3.08;;
47669;SDS011;33408;52.062;11.722;2022-08-30T07:53:52;5.68;;;2.47;;
47669;SDS011;33408;52.062;11.722;2022-08-30T07:56:19;5.50;;;2.85;;
47669;SDS011;33408;52.062;11.722;2022-08-30T07:58:46;7.50;;;2.70;;
47669;SDS011;33408;52.062;11.722;2022-08-30T08:01:15;7.38;;;2.58;;
47669;SDS011;33408;52.062;11.722;2022-08-30T08:03:43;4.40;;;2.42;;
47669;SDS011;33408;52.062;11.722;2022-08-30T08:06:11;6.20;;;3.15;;
47669;SDS011;33408;52.062;11.722;2022-08-30T08:08:40;6.30;;;3.20;;
47669;SDS011;33408;52.062;11.722;2022-08-30T08:11:07;5.82;;;3.03;;
47669;SDS011;33408;52.062;11.722;2022-08-30T08:13:37;5.78;;;2.88;;
47669;SDS011;33408;52.062;11.722;2022-08-30T08:16:03;5.85;;;3.28;;
47669;SDS011;33408;52.062;11.722;2022-08-30T08:18:32;6.15;;;2.58;;
47669;SDS011;33408;52.062;11.722;2022-08-30T08:20:59;4.05;;;2.22;;
47669;SDS011;33408;52.062;11.722;2022-08-30T08:23:25;5.00;;;2.60;;
47669;SDS011;33408;52.062;11.722;2022-08-30T08:25:52;9.23;;;2.60;;
47669;SDS011;33408;52.062;11.722;2022-08-30T08:28:19;5.63;;;2.95;;
47669;SDS011;33408;52.062;11.722;2022-08-30T08:30:46;3.85;;;2.33;;
47669;SDS011;33408;52.062;11.722;2022-08-30T08:33:14;4.13;;;2.70;;
47669;SDS011;33408;52.062;11.722;2022-08-30T08:35:43;4.18;;;2.00;;
47669;SDS011;33408;52.062;11.722;2022-08-30T08:38:09;4.13;;;2.53;;
47669;SDS011;33408;52.062;11.722;2022-08-30T08:40:37;5.03;;;2.35;;
47669;SDS011;33408;52.062;11.722;2022-08-30T08:43:12;6.18;;;2.30;;
47669;SDS011;33408;52.062;11.722;2022-08-30T08:45:42;4.05;;;2.50;;
47669;SDS011;33408;52.062;11.722;2022-08-30T08:48:24;5.45;;;2.53;;
47669;SDS011;33408;52.062;11.722;2022-08-30T08:50:56;5.95;;;2.70;;
47669;SDS011;33408;52.062;11.722;2022-08-30T08:53:42;5.03;;;2.33;;
47669;SDS011;33408;52.062;11.722;2022-08-30T08:56:16;6.45;;;2.80;;
47669;SDS011;33408;52.062;11.722;2022-08-30T08:58:46;3.85;;;2.15;;
47669;SDS011;33408;52.062;11.722;2022-08-30T09:01:16;4.55;;;2.13;;
47669;SDS011;33408;52.062;11.722;2022-08-30T09:03:43;4.65;;;2.47;;
47669;SDS011;33408;52.062;11.722;2022-08-30T09:06:19;5.82;;;2.70;;
47669;SDS011;33408;52.062;11.722;2022-08-30T09:08:52;4.03;;;2.23;;
47669;SDS011;33408;52.062;11.722;2022-08-30T09:11:20;4.72;;;2.15;;
47669;SDS011;33408;52.062;11.722;2022-08-30T09:13:50;4.40;;;2.42;;
47669;SDS011;33408;52.062;11.722;2022-08-30T09:19:10;5.78;;;2.22;;
47669;SDS011;33408;52.062;11.722;2022-08-30T09:21:38;4.45;;;2.53;;
47669;SDS011;33408;52.062;11.722;2022-08-30T09:24:05;6.63;;;2.60;;
47669;SDS011;33408;52.062;11.722;2022-08-30T09:26:36;8.10;;;2.28;;
47669;SDS011;33408;52.062;11.722;2022-08-30T09:29:04;4.80;;;2.50;;
47669;SDS011;33408;52.062;11.722;2022-08-30T09:31:44;5.05;;;2.33;;
47669;SDS011;33408;52.062;11.722;2022-08-30T09:34:15;5.47;;;2.28;;
47669;SDS011;33408;52.062;11.722;2022-08-30T09:36:45;5.15;;;2.45;;
47669;SDS011;33408;52.062;11.722;2022-08-30T09:39:14;4.55;;;2.22;;
47669;SDS011;33408;52.062;11.722;2022-08-30T09:41:43;6.50;;;2.63;;
47669;SDS011;33408;52.062;11.722;2022-08-30T09:44:14;4.95;;;2.17;;
47669;SDS011;33408;52.062;11.722;2022-08-30T09:46:46;8.43;;;2.00;;
47669;SDS011;33408;52.062;11.722;2022-08-30T09:49:28;5.38;;;1.80;;
47669;SDS011;33408;52.062;11.722;2022-08-30T09:52:00;9.82;;;2.15;;
47669;SDS011;33408;52.062;11.722;2022-08-30T09:54:36;5.85;;;2.60;;
47669;SDS011;33408;52.062;11.722;2022-08-30T09:57:12;3.10;;;1.90;;
47669;SDS011;33408;52.062;11.722;2022-08-30T09:59:48;4.30;;;2.13;;
47669;SDS011;33408;52.062;11.722;2022-08-30T10:05:23;5.13;;;1.77;;
47669;SDS011;33408;52.062;11.722;2022-08-30T10:08:00;4.25;;;2.05;;
47669;SDS011;33408;52.062;11.722;2022-08-30T10:10:35;3.45;;;2.03;;
47669;SDS011;33408;52.062;11.722;2022-08-30T10:13:14;5.30;;;2.17;;
47669;SDS011;33408;52.062;11.722;2022-08-30T10:16:05;5.35;;;2.10;;
47669;SDS011;33408;52.062;11.722;2022-08-30T10:18:42;6.03;;;1.80;;
47669;SDS011;33408;52.062;11.722;2022-08-30T10:21:17;4.53;;;1.85;;
47669;SDS011;33408;52.062;11.722;2022-08-30T10:23:51;6.20;;;1.63;;
47669;SDS011;33408;52.062;11.722;2022-08-30T10:26:25;3.92;;;1.70;;
47669;SDS011;33408;52.062;11.722;2022-08-30T10:28:56;4.50;;;1.83;;
47669;SDS011;33408;52.062;11.722;2022-08-30T10:31:27;3.35;;;1.75;;
47669;SDS011;33408;52.062;11.722;2022-08-30T10:34:05;2.92;;;1.65;;
47669;SDS011;33408;52.062;11.722;2022-08-30T10:36:36;5.35;;;1.70;;
47669;SDS011;33408;52.062;11.722;2022-08-30T10:39:09;7.75;;;1.95;;
47669;SDS011;33408;52.062;11.722;2022-08-30T10:41:41;4.40;;;2.25;;
47669;SDS011;33408;52.062;11.722;2022-08-30T10:44:13;3.45;;;1.75;;
47669;SDS011;33408;52.062;11.722;2022-08-30T10:46:49;5.32;;;2.15;;
47669;SDS011;33408;52.062;11.722;2022-08-30T10:49:24;3.63;;;1.48;;
47669;SDS011;33408;52.062;11.722;2022-08-30T10:51:54;8.90;;;2.03;;
47669;SDS011;33408;52.062;11.722;2022-08-30T10:54:31;3.25;;;1.70;;
47669;SDS011;33408;52.062;11.722;2022-08-30T10:57:02;3.83;;;1.90;;
47669;SDS011;33408;52.062;11.722;2022-08-30T10:59:29;4.80;;;1.60;;
47669;SDS011;33408;52.062;11.722;2022-08-30T11:02:09;3.72;;;1.50;;
47669;SDS011;33408;52.062;11.722;2022-08-30T11:05:11;4.88;;;1.58;;
47669;SDS011;33408;52.062;11.722;2022-08-30T11:07:55;3.90;;;1.42;;
47669;SDS011;33408;52.062;11.722;2022-08-30T11:10:37;3.47;;;1.80;;
47669;SDS011;33408;52.062;11.722;2022-08-30T11:13:12;4.95;;;1.63;;
47669;SDS011;33408;52.062;11.722;2022-08-30T11:15:51;5.00;;;1.80;;
47669;SDS011;33408;52.062;11.722;2022-08-30T11:18:24;4.78;;;1.60;;
47669;SDS011;33408;52.062;11.722;2022-08-30T11:20:54;4.47;;;1.40;;
47669;SDS011;33408;52.062;11.722;2022-08-30T11:23:58;3.35;;;1.20;;
47669;SDS011;33408;52.062;11.722;2022-08-30T11:29:28;3.25;;;1.50;;
47669;SDS011;33408;52.062;11.722;2022-08-30T11:31:58;4.50;;;1.50;;
47669;SDS011;33408;52.062;11.722;2022-08-30T11:34:53;3.13;;;1.52;;
47669;SDS011;33408;52.062;11.722;2022-08-30T11:37:33;4.67;;;1.50;;
47669;SDS011;33408;52.062;11.722;2022-08-30T11:40:03;2.65;;;1.30;;
47669;SDS011;33408;52.062;11.722;2022-08-30T11:42:34;3.08;;;1.10;;
47669;SDS011;33408;52.062;11.722;2022-08-30T11:51:21;4.93;;;1.58;;
47669;SDS011;33408;52.062;11.722;2022-08-30T11:53:58;4.40;;;1.35;;
47669;SDS011;33408;52.062;11.722;2022-08-30T11:56:35;4.57;;;1.30;;
47669;SDS011;33408;52.062;11.722;2022-08-30T11:59:19;3.08;;;1.33;;
47669;SDS011;33408;52.062;11.722;2022-08-30T12:01:53;2.95;;;1.33;;
47669;SDS011;33408;52.062;11.722;2022-08-30T12:04:27;3.60;;;1.38;;
47669;SDS011;33408;52.062;11.722;2022-08-30T12:12:44;3.45;;;1.60;;
47669;SDS011;33408;52.062;11.722;2022-08-30T12:15:50;2.40;;;1.00;;
47669;SDS011;33408;52.062;11.722;2022-08-30T12:18:29;4.97;;;1.40;;
47669;SDS011;33408;52.062;11.722;2022-08-30T12:21:02;13.90;;;2.10;;
47669;SDS011;33408;52.062;11.722;2022-08-30T12:23:37;4.28;;;1.20;;
47669;SDS011;33408;52.062;11.722;2022-08-30T12:26:15;7.82;;;1.23;;
47669;SDS011;33408;52.062;11.722;2022-08-30T12:28:44;4.95;;;1.40;;
47669;SDS011;33408;52.062;11.722;2022-08-30T12:31:16;3.60;;;1.30;;
47669;SDS011;33408;52.062;11.722;2022-08-30T12:33:46;2.90;;;1.30;;
47669;SDS011;33408;52.062;11.722;2022-08-30T12:36:15;1.98;;;1.10;;
47669;SDS011;33408;52.062;11.722;2022-08-30T12:39:03;2.28;;;1.23;;
47669;SDS011;33408;52.062;11.722;2022-08-30T12:41:31;3.35;;;1.10;;
47669;SDS011;33408;52.062;11.722;2022-08-30T12:43:58;5.18;;;1.50;;
47669;SDS011;33408;52.062;11.722;2022-08-30T12:46:27;3.80;;;1.38;;
47669;SDS011;33408;52.062;11.722;2022-08-30T12:48:54;2.33;;;1.10;;
47669;SDS011;33408;52.062;11.722;2022-08-30T12:51:27;4.13;;;1.35;;
47669;SDS011;33408;52.062;11.722;2022-08-30T12:54:06;2.15;;;1.30;;
47669;SDS011;33408;52.062;11.722;2022-08-30T12:56:52;3.22;;;1.10;;
47669;SDS011;33408;52.062;11.722;2022-08-30T12:59:37;2.00;;;1.08;;
47669;SDS011;33408;52.062;11.722;2022-08-30T13:02:17;2.90;;;1.17;;
47669;SDS011;33408;52.062;11.722;2022-08-30T13:04:46;2.65;;;1.40;;
47669;SDS011;33408;52.062;11.722;2022-08-30T13:07:27;3.75;;;1.40;;
47669;SDS011;33408;52.062;11.722;2022-08-30T13:12:27;4.18;;;1.50;;
47669;SDS011;33408;52.062;11.722;2022-08-30T13:15:07;3.22;;;1.23;;
47669;SDS011;33408;52.062;11.722;2022-08-30T13:17:38;2.60;;;1.17;;
47669;SDS011;33408;52.062;11.722;2022-08-30T13:20:06;4.53;;;1.58;;
47669;SDS011;33408;52.062;11.722;2022-08-30T13:22:59;2.08;;;1.30;;
47669;SDS011;33408;52.062;11.722;2022-08-30T13:25:28;4.55;;;1.60;;
47669;SDS011;33408;52.062;11.722;2022-08-30T13:27:55;4.10;;;1.30;;
47669;SDS011;33408;52.062;11.722;2022-08-30T13:30:22;2.65;;;1.10;;
47669;SDS011;33408;52.062;11.722;2022-08-30T13:32:50;4.20;;;1.30;;
47669;SDS011;33408;52.062;11.722;2022-08-30T13:35:16;5.72;;;1.52;;
47669;SDS011;33408;52.062;11.722;2022-08-30T13:37:43;3.85;;;1.40;;
47669;SDS011;33408;52.062;11.722;2022-08-30T13:40:10;2.90;;;1.00;;
47669;SDS011;33408;52.062;11.722;2022-08-30T13:42:38;3.40;;;1.40;;
47669;SDS011;33408;52.062;11.722;2022-08-30T13:45:07;1.60;;;1.08;;
47669;SDS011;33408;52.062;11.722;2022-08-30T13:47:34;3.92;;;1.20;;
47669;SDS011;33408;52.062;11.722;2022-08-30T13:50:02;2.15;;;1.13;;
47669;SDS011;33408;52.062;11.722;2022-08-30T13:52:30;5.65;;;1.63;;
47669;SDS011;33408;52.062;11.722;2022-08-30T13:54:56;3.15;;;1.30;;
47669;SDS011;33408;52.062;11.722;2022-08-30T13:57:24;3.13;;;1.20;;
47669;SDS011;33408;52.062;11.722;2022-08-30T13:59:53;2.67;;;0.90;;
47669;SDS011;33408;52.062;11.722;2022-08-30T14:02:19;4.35;;;1.45;;
47669;SDS011;33408;52.062;11.722;2022-08-30T14:04:46;3.92;;;1.42;;
47669;SDS011;33408;52.062;11.722;2022-08-30T14:07:14;4.28;;;1.40;;
47669;SDS011;33408;52.062;11.722;2022-08-30T14:09:41;3.72;;;1.35;;
47669;SDS011;33408;52.062;11.722;2022-08-30T14:12:07;6.85;;;1.48;;
47669;SDS011;33408;52.062;11.722;2022-08-30T14:14:34;3.92;;;1.20;;
47669;SDS011;33408;52.062;11.722;2022-08-30T14:17:01;1.63;;;0.90;;
47669;SDS011;33408;52.062;11.722;2022-08-30T14:19:28;4.35;;;1.50;;
47669;SDS011;33408;52.062;11.722;2022-08-30T14:21:54;3.88;;;1.42;;
47669;SDS011;33408;52.062;11.722;2022-08-30T14:24:22;3.15;;;1.20;;
47669;SDS011;33408;52.062;11.722;2022-08-30T14:26:49;4.03;;;1.55;;
47669;SDS011;33408;52.062;11.722;2022-08-30T14:29:17;5.50;;;1.40;;
47669;SDS011;33408;52.062;11.722;2022-08-30T14:31:46;4.20;;;1.23;;
47669;SDS011;33408;52.062;11.722;2022-08-30T14:34:14;4.03;;;1.42;;
47669;SDS011;33408;52.062;11.722;2022-08-30T14:36:42;2.88;;;1.40;;
47669;SDS011;33408;52.062;11.722;2022-08-30T14:39:11;4.22;;;1.42;;
47669;SDS011;33408;52.062;11.722;2022-08-30T14:41:43;4.07;;;1.30;;
47669;SDS011;33408;52.062;11.722;2022-08-30T14:44:12;2.42;;;1.33;;
47669;SDS011;33408;52.062;11.722;2022-08-30T14:46:40;3.03;;;1.58;;
47669;SDS011;33408;52.062;11.722;2022-08-30T14:49:06;4.32;;;1.10;;
47669;SDS011;33408;52.062;11.722;2022-08-30T14:51:33;2.08;;;0.98;;
47669;SDS011;33408;52.062;11.722;2022-08-30T14:54:00;2.67;;;1.17;;
47669;SDS011;33408;52.062;11.722;2022-08-30T14:56:26;2.80;;;1.10;;
47669;SDS011;33408;52.062;11.722;2022-08-30T14:58:54;4.97;;;1.50;;
47669;SDS011;33408;52.062;11.722;2022-08-30T15:01:24;5.60;;;1.83;;
47669;SDS011;33408;52.062;11.722;2022-08-30T15:03:51;6.72;;;1.40;;
47669;SDS011;33408;52.062;11.722;2022-08-30T15:06:18;8.20;;;1.77;;
47669;SDS011;33408;52.062;11.722;2022-08-30T15:08:45;3.15;;;1.42;;